createdAt,value
2019-03-15T00:00:55.232Z,8.53
2019-03-15T00:01:55.321Z,8.60
2019-03-15T00:02:55.410Z,8.47
2019-03-15T00:03:55.498Z,8.55
2019-03-15T00:04:55.589Z,8.54
2019-03-15T00:05:55.683Z,8.60
2019-03-15T00:06:55.769Z,8.53
2019-03-15T00:07:55.859Z,8.53
2019-03-15T00:08:55.949Z,8.48
2019-03-15T00:09:56.039Z,8.47
2019-03-15T00:10:56.126Z,8.53
2019-03-15T00:11:56.215Z,8.53
2019-03-15T00:12:56.296Z,8.51
2019-03-15T00:13:56.382Z,8.54
2019-03-15T00:14:56.474Z,8.50
2019-03-15T00:15:56.561Z,8.53
2019-03-15T00:16:56.648Z,8.45
2019-03-15T00:17:56.742Z,8.45
2019-03-15T00:18:56.828Z,8.35
2019-03-15T00:19:56.916Z,8.35
2019-03-15T00:20:57.009Z,8.39
2019-03-15T00:21:57.097Z,8.33
2019-03-15T00:22:57.184Z,8.32
2019-03-15T00:23:57.271Z,8.22
2019-03-15T00:24:57.361Z,8.12
2019-03-15T00:25:57.450Z,8.14
2019-03-15T00:26:57.543Z,8.12
2019-03-15T00:27:57.628Z,8.12
2019-03-15T00:28:57.725Z,8.14
2019-03-15T00:29:57.812Z,8.15
2019-03-15T00:30:57.899Z,8.14
2019-03-15T00:31:57.994Z,8.14
2019-03-15T00:32:58.580Z,8.20
2019-03-15T00:33:58.173Z,8.10
2019-03-15T00:34:58.262Z,8.12
2019-03-15T00:35:58.352Z,8.20
2019-03-15T00:36:58.441Z,8.15
2019-03-15T00:37:58.576Z,8.14
2019-03-15T00:38:58.615Z,8.08
2019-03-15T00:39:58.701Z,8.02
2019-03-15T00:40:58.790Z,8.15
2019-03-15T00:41:58.878Z,8.17
2019-03-15T00:42:58.967Z,8.04
2019-03-15T00:43:59.050Z,8.07
2019-03-15T00:44:59.146Z,8.02
2019-03-15T00:45:59.234Z,8.04
2019-03-15T00:46:59.325Z,8.10
2019-03-15T00:47:59.412Z,8.10
2019-03-15T00:48:59.502Z,8.03
2019-03-15T00:49:59.591Z,8.08
2019-03-15T00:50:59.670Z,8.17
2019-03-15T00:51:59.761Z,8.17
2019-03-15T00:52:59.852Z,8.20
2019-03-15T00:53:59.941Z,8.14
2019-03-15T00:55:00.034Z,8.12
2019-03-15T00:56:00.142Z,8.02
2019-03-15T00:57:00.229Z,7.99
2019-03-15T00:58:00.318Z,8.00
2019-03-15T00:59:00.407Z,7.81
2019-03-15T01:00:00.497Z,7.93
2019-03-15T01:01:00.589Z,7.90
2019-03-15T01:02:00.677Z,7.93
2019-03-15T01:03:00.763Z,7.90
2019-03-15T01:04:00.852Z,7.90
2019-03-15T01:05:00.933Z,7.92
2019-03-15T01:06:01.040Z,8.02
2019-03-15T01:07:01.129Z,7.85
2019-03-15T01:08:01.217Z,7.90
2019-03-15T01:09:01.295Z,7.87
2019-03-15T01:10:01.381Z,7.97
2019-03-15T01:11:01.471Z,8.02
2019-03-15T01:12:01.560Z,7.94
2019-03-15T01:13:01.651Z,8.07
2019-03-15T01:14:01.736Z,7.82
2019-03-15T01:15:01.825Z,7.92
2019-03-15T01:16:01.917Z,7.97
2019-03-15T01:17:02.003Z,7.96
2019-03-15T01:18:02.093Z,7.93
2019-03-15T01:19:02.183Z,8.07
2019-03-15T01:20:02.848Z,8.10
2019-03-15T01:21:02.385Z,8.10
2019-03-15T01:22:02.475Z,8.08
2019-03-15T01:23:02.562Z,8.08
2019-03-15T01:24:02.657Z,8.07
2019-03-15T01:25:02.746Z,8.02
2019-03-15T01:26:02.837Z,8.02
2019-03-15T01:27:02.926Z,8.04
2019-03-15T01:28:03.035Z,8.02
2019-03-15T01:29:03.099Z,8.02
2019-03-15T01:30:03.189Z,8.18
2019-03-15T01:31:03.280Z,8.21
2019-03-15T01:32:03.365Z,8.21
2019-03-15T01:33:03.457Z,8.20
2019-03-15T01:34:03.546Z,8.18
2019-03-15T01:35:03.636Z,8.03
2019-03-15T01:36:03.725Z,8.04
2019-03-15T01:37:03.820Z,8.10
2019-03-15T01:38:03.914Z,8.03
2019-03-15T01:39:04.001Z,7.93
2019-03-15T01:40:04.090Z,7.85
2019-03-15T01:41:04.351Z,7.84
2019-03-15T01:42:04.276Z,7.78
2019-03-15T01:43:04.366Z,7.77
2019-03-15T01:44:04.447Z,7.79
2019-03-15T01:45:04.538Z,7.82
2019-03-15T01:46:04.629Z,7.84
2019-03-15T01:47:04.722Z,7.87
2019-03-15T01:48:05.088Z,7.81
2019-03-15T01:49:04.895Z,7.84
2019-03-15T01:50:04.991Z,7.89
2019-03-15T01:51:05.067Z,7.94
2019-03-15T01:52:05.159Z,7.94
2019-03-15T01:53:05.245Z,7.90
2019-03-15T01:54:05.338Z,8.00
2019-03-15T01:55:05.428Z,7.99
2019-03-15T01:56:05.512Z,7.93
2019-03-15T01:57:05.606Z,7.93
2019-03-15T01:58:05.693Z,7.99
2019-03-15T01:59:05.781Z,8.04
2019-03-15T02:00:05.874Z,8.02
2019-03-15T02:01:05.964Z,8.00
2019-03-15T02:02:06.051Z,8.03
2019-03-15T02:03:06.140Z,8.20
2019-03-15T02:04:06.229Z,8.21
2019-03-15T02:05:06.318Z,8.12
2019-03-15T02:06:06.414Z,8.15
2019-03-15T02:07:06.502Z,8.08
2019-03-15T02:08:06.598Z,7.99
2019-03-15T02:09:09.326Z,8.02
2019-03-15T02:10:06.773Z,8.02
2019-03-15T02:11:06.880Z,8.02
2019-03-15T02:12:06.963Z,7.93
2019-03-15T02:13:07.062Z,7.96
2019-03-15T02:14:07.152Z,7.97
2019-03-15T02:15:07.241Z,7.89
2019-03-15T02:16:07.334Z,7.94
2019-03-15T02:17:07.425Z,7.82
2019-03-15T02:18:07.510Z,7.78
2019-03-15T02:19:07.598Z,7.72
2019-03-15T02:20:07.688Z,7.71
2019-03-15T02:21:07.777Z,7.81
2019-03-15T02:22:08.440Z,7.62
2019-03-15T02:23:07.958Z,7.71
2019-03-15T02:24:08.049Z,7.78
2019-03-15T02:25:08.197Z,7.77
2019-03-15T02:26:08.228Z,7.81
2019-03-15T02:27:08.319Z,7.78
2019-03-15T02:28:08.406Z,7.87
2019-03-15T02:29:08.495Z,7.87
2019-03-15T02:30:08.655Z,7.93
2019-03-15T02:31:08.674Z,7.92
2019-03-15T02:32:08.763Z,7.94
2019-03-15T02:33:08.850Z,7.92
2019-03-15T02:34:08.947Z,7.84
2019-03-15T02:35:09.015Z,7.97
2019-03-15T02:36:09.102Z,7.93
2019-03-15T02:37:09.193Z,7.84
2019-03-15T02:38:09.281Z,7.94
2019-03-15T02:39:09.370Z,7.90
2019-03-15T02:40:09.469Z,7.93
2019-03-15T02:41:09.545Z,8.07
2019-03-15T02:42:09.639Z,7.89
2019-03-15T02:43:10.020Z,7.93
2019-03-15T02:44:09.817Z,7.90
2019-03-15T02:45:09.906Z,7.99
2019-03-15T02:46:09.996Z,7.97
2019-03-15T02:47:10.085Z,7.97
2019-03-15T02:48:10.174Z,7.82
2019-03-15T02:49:10.265Z,7.81
2019-03-15T02:50:10.354Z,7.87
2019-03-15T02:51:10.442Z,7.93
2019-03-15T02:52:10.522Z,7.97
2019-03-15T02:53:10.615Z,8.00
2019-03-15T02:54:10.703Z,8.08
2019-03-15T02:55:10.794Z,7.97
2019-03-15T02:56:10.880Z,7.82
2019-03-15T02:57:10.973Z,7.75
2019-03-15T02:58:11.041Z,7.60
2019-03-15T02:59:11.145Z,7.85
2019-03-15T03:00:11.219Z,7.92
2019-03-15T03:01:11.304Z,7.92
2019-03-15T03:02:11.392Z,7.96
2019-03-15T03:03:11.482Z,7.94
2019-03-15T03:04:11.571Z,8.04
2019-03-15T03:05:11.661Z,8.04
2019-03-15T03:06:11.766Z,8.20
2019-03-15T03:07:11.844Z,8.25
2019-03-15T03:08:11.932Z,8.12
2019-03-15T03:09:12.027Z,8.04
2019-03-15T03:10:12.119Z,8.07
2019-03-15T03:11:12.209Z,8.07
2019-03-15T03:12:12.298Z,8.17
2019-03-15T03:13:12.389Z,8.12
2019-03-15T03:14:12.475Z,8.17
2019-03-15T03:15:12.564Z,8.17
2019-03-15T03:16:12.651Z,8.21
2019-03-15T03:17:13.209Z,8.25
2019-03-15T03:18:12.825Z,8.22
2019-03-15T03:19:12.917Z,8.33
2019-03-15T03:20:13.037Z,8.28
2019-03-15T03:21:13.275Z,8.30
2019-03-15T03:22:13.179Z,8.30
2019-03-15T03:23:13.277Z,8.26
2019-03-15T03:24:13.357Z,8.18
2019-03-15T03:25:13.449Z,8.10
2019-03-15T03:26:13.720Z,8.14
2019-03-15T03:27:13.624Z,8.15
2019-03-15T03:28:13.702Z,8.20
2019-03-15T03:29:13.808Z,8.20
2019-03-15T03:30:16.445Z,8.21
2019-03-15T03:31:15.631Z,8.26
2019-03-15T03:32:14.519Z,8.25
2019-03-15T03:33:14.384Z,8.26
2019-03-15T03:34:14.275Z,8.15
2019-03-15T03:35:14.352Z,8.17
2019-03-15T03:36:14.432Z,8.20
2019-03-15T03:37:14.516Z,8.25
2019-03-15T03:38:14.604Z,8.33
2019-03-15T03:39:14.696Z,8.33
2019-03-15T03:40:14.788Z,8.37
2019-03-15T03:41:14.876Z,8.30
2019-03-15T03:42:14.972Z,8.40
2019-03-15T03:43:15.069Z,8.50
2019-03-15T03:44:15.161Z,8.39
2019-03-15T03:45:15.247Z,8.53
2019-03-15T03:46:15.334Z,8.55
2019-03-15T03:47:15.420Z,8.39
2019-03-15T03:48:15.995Z,8.48
2019-03-15T03:49:15.615Z,8.48
2019-03-15T03:50:15.687Z,8.32
2019-03-15T03:51:15.776Z,8.35
2019-03-15T03:52:15.866Z,8.21
2019-03-15T03:53:15.948Z,8.17
2019-03-15T03:54:16.034Z,8.20
2019-03-15T03:55:16.124Z,8.14
2019-03-15T03:56:16.311Z,8.15
2019-03-15T03:57:16.302Z,8.14
2019-03-15T03:58:16.391Z,8.20
2019-03-15T03:59:16.531Z,8.11
2019-03-15T04:00:16.575Z,8.07
2019-03-15T04:01:16.664Z,8.17
2019-03-15T04:02:16.754Z,8.22
2019-03-15T04:03:16.843Z,8.15
2019-03-15T04:04:16.954Z,8.12
2019-03-15T04:05:17.023Z,8.22
2019-03-15T04:06:17.115Z,8.10
2019-03-15T04:07:17.203Z,8.04
2019-03-15T04:08:17.293Z,8.02
2019-03-15T04:09:17.383Z,8.02
2019-03-15T04:10:17.470Z,8.17
2019-03-15T04:11:17.560Z,8.07
2019-03-15T04:12:17.652Z,8.08
2019-03-15T04:13:17.740Z,8.15
2019-03-15T04:14:17.832Z,8.14
2019-03-15T04:15:17.927Z,8.11
2019-03-15T04:16:18.011Z,8.12
2019-03-15T04:17:18.102Z,8.11
2019-03-15T04:18:18.187Z,8.04
2019-03-15T04:19:18.272Z,8.20
2019-03-15T04:20:18.366Z,8.17
2019-03-15T04:21:18.453Z,8.17
2019-03-15T04:22:18.535Z,8.12
2019-03-15T04:23:18.625Z,8.02
2019-03-15T04:24:18.716Z,8.04
2019-03-15T04:25:18.807Z,8.07
2019-03-15T04:26:18.904Z,8.08
2019-03-15T04:27:19.000Z,8.03
2019-03-15T04:28:19.139Z,8.07
2019-03-15T04:29:19.172Z,8.02
2019-03-15T04:30:19.283Z,7.99
2019-03-15T04:31:19.371Z,8.08
2019-03-15T04:32:19.465Z,8.10
2019-03-15T04:33:19.555Z,8.14
2019-03-15T04:34:19.639Z,8.07
2019-03-15T04:35:19.730Z,8.11
2019-03-15T04:36:19.823Z,8.12
2019-03-15T04:37:22.695Z,8.11
2019-03-15T04:38:19.989Z,8.08
2019-03-15T04:39:20.099Z,8.15
2019-03-15T04:40:20.168Z,8.15
2019-03-15T04:41:20.263Z,8.10
2019-03-15T04:42:20.347Z,8.12
2019-03-15T04:43:20.431Z,8.15
2019-03-15T04:44:20.519Z,8.14
2019-03-15T04:45:20.612Z,8.14
2019-03-15T04:46:20.703Z,8.07
2019-03-15T04:47:20.792Z,8.11
2019-03-15T04:48:20.882Z,8.11
2019-03-15T04:49:20.966Z,8.12
2019-03-15T04:50:21.046Z,8.02
2019-03-15T04:51:21.138Z,8.15
2019-03-15T04:52:21.227Z,8.04
2019-03-15T04:53:21.317Z,8.07
2019-03-15T04:54:21.407Z,8.00
2019-03-15T04:55:21.500Z,8.12
2019-03-15T04:56:21.587Z,8.04
2019-03-15T04:57:21.678Z,8.18
2019-03-15T04:58:21.766Z,8.12
2019-03-15T04:59:24.010Z,8.15
2019-03-15T05:00:21.941Z,8.15
2019-03-15T05:01:22.038Z,8.15
2019-03-15T05:02:22.128Z,8.04
2019-03-15T05:03:22.218Z,8.12
2019-03-15T05:04:22.311Z,8.14
2019-03-15T05:05:22.398Z,8.11
2019-03-15T05:06:22.490Z,8.07
2019-03-15T05:07:22.578Z,8.15
2019-03-15T05:08:22.666Z,8.12
2019-03-15T05:09:22.754Z,8.11
2019-03-15T05:10:22.844Z,8.10
2019-03-15T05:11:22.948Z,8.12
2019-03-15T05:12:23.058Z,8.07
2019-03-15T05:13:23.154Z,8.02
2019-03-15T05:14:23.263Z,8.02
2019-03-15T05:15:23.447Z,8.12
2019-03-15T05:16:23.443Z,8.04
2019-03-15T05:17:23.534Z,8.11
2019-03-15T05:18:23.619Z,8.18
2019-03-15T05:19:23.709Z,8.10
2019-03-15T05:20:23.806Z,8.10
2019-03-15T05:21:23.892Z,8.02
2019-03-15T05:22:23.978Z,7.97
2019-03-15T05:23:24.072Z,7.89
2019-03-15T05:24:24.158Z,7.93
2019-03-15T05:25:24.247Z,8.10
2019-03-15T05:26:24.339Z,8.00
2019-03-15T05:27:24.422Z,7.97
2019-03-15T05:28:24.624Z,8.03
2019-03-15T05:29:24.606Z,8.00
2019-03-15T05:30:24.694Z,8.10
2019-03-15T05:31:24.781Z,8.07
2019-03-15T05:32:24.872Z,8.07
2019-03-15T05:33:24.984Z,7.93
2019-03-15T05:34:25.053Z,8.03
2019-03-15T05:35:25.139Z,8.08
2019-03-15T05:36:25.229Z,8.12
2019-03-15T05:37:25.321Z,8.08
2019-03-15T05:38:25.409Z,8.11
2019-03-15T05:39:25.513Z,8.08
2019-03-15T05:40:25.602Z,8.04
2019-03-15T05:41:25.693Z,8.14
2019-03-15T05:42:25.785Z,8.17
2019-03-15T05:43:25.880Z,8.17
2019-03-15T05:44:25.975Z,8.18
2019-03-15T05:45:26.063Z,8.14
2019-03-15T05:46:26.151Z,8.20
2019-03-15T05:47:26.238Z,8.20
2019-03-15T05:48:26.329Z,8.21
2019-03-15T05:49:26.434Z,8.35
2019-03-15T05:50:26.521Z,8.30
2019-03-15T05:51:26.598Z,8.25
2019-03-15T05:52:26.691Z,8.21
2019-03-15T05:53:26.779Z,8.26
2019-03-15T05:54:26.863Z,8.30
2019-03-15T05:55:26.952Z,8.14
2019-03-15T05:56:27.028Z,8.21
2019-03-15T05:57:27.122Z,8.28
2019-03-15T05:58:27.208Z,8.25
2019-03-15T05:59:27.298Z,8.33
2019-03-15T06:00:27.388Z,8.26
2019-03-15T06:01:27.478Z,8.30
2019-03-15T06:02:27.568Z,8.22
2019-03-15T06:03:27.661Z,8.21
2019-03-15T06:04:27.758Z,8.35
2019-03-15T06:05:27.912Z,8.29
2019-03-15T06:06:27.926Z,8.30
2019-03-15T06:07:28.014Z,8.26
2019-03-15T06:08:28.106Z,8.32
2019-03-15T06:09:28.193Z,8.30
2019-03-15T06:10:28.292Z,8.35
2019-03-15T06:11:28.376Z,8.30
2019-03-15T06:12:28.482Z,8.35
2019-03-15T06:13:28.559Z,8.39
2019-03-15T06:14:28.648Z,8.32
2019-03-15T06:15:28.739Z,8.36
2019-03-15T06:16:28.831Z,8.28
2019-03-15T06:17:28.955Z,8.33
2019-03-15T06:18:29.011Z,8.32
2019-03-15T06:19:29.091Z,8.47
2019-03-15T06:20:29.184Z,8.47
2019-03-15T06:21:29.262Z,8.50
2019-03-15T06:22:29.355Z,8.45
2019-03-15T06:23:29.446Z,8.51
2019-03-15T06:24:29.541Z,8.57
2019-03-15T06:25:29.626Z,8.55
2019-03-15T06:26:29.719Z,8.53
2019-03-15T06:27:31.159Z,8.53
2019-03-15T06:28:29.900Z,8.57
2019-03-15T06:29:30.005Z,8.60
2019-03-15T06:30:30.095Z,8.65
2019-03-15T06:31:30.189Z,8.69
2019-03-15T06:32:30.282Z,8.69
2019-03-15T06:33:30.366Z,8.54
2019-03-15T06:34:30.466Z,8.50
2019-03-15T06:35:30.551Z,8.60
2019-03-15T06:36:30.644Z,8.62
2019-03-15T06:37:30.729Z,8.63
2019-03-15T06:38:33.450Z,8.51
2019-03-15T06:39:30.913Z,8.57
2019-03-15T06:40:31.837Z,8.68
2019-03-15T06:41:31.111Z,8.66
2019-03-15T06:42:31.209Z,8.63
2019-03-15T06:43:31.293Z,8.62
2019-03-15T06:44:31.384Z,8.65
2019-03-15T06:45:32.025Z,8.62
2019-03-15T06:46:31.566Z,8.58
2019-03-15T06:47:31.657Z,8.66
2019-03-15T06:48:31.747Z,8.54
2019-03-15T06:49:31.846Z,8.60
2019-03-15T06:50:31.931Z,8.58
2019-03-15T06:51:32.021Z,8.60
2019-03-15T06:52:32.106Z,8.76
2019-03-15T06:53:32.196Z,8.69
2019-03-15T06:54:32.290Z,8.66
2019-03-15T06:55:32.382Z,8.73
2019-03-15T06:56:32.467Z,8.66
2019-03-15T06:57:32.571Z,8.57
2019-03-15T06:58:32.648Z,8.44
2019-03-15T06:59:32.742Z,8.51
2019-03-15T07:00:32.832Z,8.55
2019-03-15T07:01:32.925Z,8.62
2019-03-15T07:02:33.013Z,8.63
2019-03-15T07:03:33.141Z,8.63
2019-03-15T07:04:33.234Z,8.53
2019-03-15T07:05:33.323Z,8.54
2019-03-15T07:06:33.417Z,8.62
2019-03-15T07:07:33.547Z,8.69
2019-03-15T07:08:33.602Z,8.72
2019-03-15T07:09:33.699Z,8.83
2019-03-15T07:10:33.785Z,8.76
2019-03-15T07:11:33.880Z,8.84
2019-03-15T07:12:33.973Z,8.76
2019-03-15T07:13:34.070Z,8.66
2019-03-15T07:14:34.150Z,8.75
2019-03-15T07:15:34.246Z,8.78
2019-03-15T07:16:34.337Z,8.68
2019-03-15T07:17:34.431Z,8.73
2019-03-15T07:18:35.495Z,8.69
2019-03-15T07:19:34.626Z,8.73
2019-03-15T07:20:34.717Z,8.76
2019-03-15T07:21:36.830Z,8.87
2019-03-15T07:22:34.900Z,8.83
2019-03-15T07:23:35.047Z,8.90
2019-03-15T07:24:35.091Z,8.91
2019-03-15T07:25:35.168Z,8.91
2019-03-15T07:26:35.269Z,8.86
2019-03-15T07:27:35.364Z,8.90
2019-03-15T07:28:35.453Z,8.91
2019-03-15T07:29:35.544Z,8.76
2019-03-15T07:30:35.633Z,8.83
2019-03-15T07:31:35.721Z,8.83
2019-03-15T07:32:35.811Z,8.87
2019-03-15T07:33:35.922Z,8.86
2019-03-15T07:34:36.012Z,8.84
2019-03-15T07:35:36.998Z,8.84
2019-03-15T07:36:37.399Z,8.97
2019-03-15T07:37:36.317Z,8.93
2019-03-15T07:38:36.408Z,9.01
2019-03-15T07:39:36.503Z,9.06
2019-03-15T07:40:36.595Z,8.87
2019-03-15T07:41:36.688Z,8.63
2019-03-15T07:42:36.780Z,8.71
2019-03-15T07:43:36.875Z,8.71
2019-03-15T07:44:36.960Z,8.73
2019-03-15T07:45:37.080Z,8.76
2019-03-15T07:46:37.133Z,8.75
2019-03-15T07:47:37.222Z,8.63
2019-03-15T07:48:37.317Z,8.78
2019-03-15T07:49:37.408Z,8.79
2019-03-15T07:50:37.498Z,8.78
2019-03-15T07:51:37.591Z,8.91
2019-03-15T07:52:37.683Z,8.86
2019-03-15T07:53:37.776Z,8.99
2019-03-15T07:54:38.599Z,9.02
2019-03-15T07:55:37.963Z,9.10
2019-03-15T07:56:38.055Z,9.20
2019-03-15T07:57:38.146Z,9.01
2019-03-15T07:58:38.238Z,9.06
2019-03-15T07:59:38.332Z,9.12
2019-03-15T08:00:38.423Z,9.16
2019-03-15T08:01:38.508Z,9.09
2019-03-15T08:02:38.610Z,9.15
2019-03-15T08:03:38.704Z,9.12
2019-03-15T08:04:38.793Z,9.25
2019-03-15T08:05:38.895Z,9.15
2019-03-15T08:06:38.982Z,9.06
2019-03-15T08:07:44.745Z,9.05
2019-03-15T08:08:39.250Z,9.10
2019-03-15T08:09:39.250Z,8.93
2019-03-15T08:10:39.368Z,9.13
2019-03-15T08:11:39.437Z,9.02
2019-03-15T08:12:39.531Z,8.88
2019-03-15T08:13:39.620Z,8.96
2019-03-15T08:14:39.735Z,8.76
2019-03-15T08:15:39.828Z,8.81
2019-03-15T08:16:39.921Z,8.94
2019-03-15T08:17:40.019Z,8.90
2019-03-15T08:18:40.105Z,8.96
2019-03-15T08:19:40.199Z,9.01
2019-03-15T08:20:40.290Z,9.01
2019-03-15T08:21:40.386Z,8.99
2019-03-15T08:22:40.591Z,8.97
2019-03-15T08:23:40.571Z,8.97
2019-03-15T08:24:51.012Z,8.99
2019-03-15T08:25:40.763Z,9.04
2019-03-15T08:26:40.852Z,9.09
2019-03-15T08:27:40.951Z,9.09
2019-03-15T08:28:41.071Z,9.10
2019-03-15T08:29:41.135Z,9.13
2019-03-15T08:30:41.228Z,9.05
2019-03-15T08:31:41.318Z,9.06
2019-03-15T08:32:43.292Z,9.06
2019-03-15T08:33:41.510Z,9.20
2019-03-15T08:34:41.593Z,9.20
2019-03-15T08:35:41.692Z,9.16
2019-03-15T08:36:41.779Z,9.21
2019-03-15T08:37:41.879Z,9.16
2019-03-15T08:38:47.250Z,8.90
2019-03-15T08:39:42.056Z,8.93
2019-03-15T08:40:42.148Z,9.04
2019-03-15T08:41:42.237Z,9.06
2019-03-15T08:42:42.327Z,9.04
2019-03-15T08:43:42.741Z,8.91
2019-03-15T08:44:42.517Z,8.90
2019-03-15T08:45:42.608Z,8.97
2019-03-15T08:46:42.698Z,8.86
2019-03-15T08:47:42.798Z,8.66
2019-03-15T08:48:42.878Z,8.72
2019-03-15T08:49:42.982Z,8.81
2019-03-15T08:50:43.070Z,8.79
2019-03-15T08:51:43.165Z,8.83
2019-03-15T08:52:43.253Z,8.86
2019-03-15T08:53:43.338Z,8.76
2019-03-15T08:54:46.474Z,8.86
2019-03-15T08:55:43.526Z,8.71
2019-03-15T08:56:43.625Z,8.83
2019-03-15T08:57:43.721Z,8.78
2019-03-15T08:58:43.808Z,8.83
2019-03-15T08:59:56.634Z,8.86
2019-03-15T09:00:44.016Z,8.83
2019-03-15T09:01:44.111Z,8.78
2019-03-15T09:02:44.219Z,8.71
2019-03-15T09:03:44.291Z,8.78
2019-03-15T09:04:44.386Z,8.73
2019-03-15T09:05:44.474Z,8.72
2019-03-15T09:06:44.566Z,8.54
2019-03-15T09:07:44.674Z,8.62
2019-03-15T09:08:44.766Z,8.71
2019-03-15T09:09:44.854Z,8.86
2019-03-15T09:10:44.945Z,8.87
2019-03-15T09:11:45.036Z,8.88
2019-03-15T09:12:45.145Z,8.84
2019-03-15T09:13:45.236Z,8.88
2019-03-15T09:14:45.325Z,8.91
2019-03-15T09:15:45.417Z,8.94
2019-03-15T09:16:45.509Z,8.79
2019-03-15T09:17:45.606Z,8.83
2019-03-15T09:18:45.695Z,8.81
2019-03-15T09:19:45.811Z,8.86
2019-03-15T09:20:45.882Z,8.87
2019-03-15T09:21:45.976Z,8.94
2019-03-15T09:22:46.064Z,9.01
2019-03-15T09:23:46.158Z,9.06
2019-03-15T09:24:46.254Z,9.06
2019-03-15T09:25:46.368Z,8.99
2019-03-15T09:26:46.451Z,9.05
2019-03-15T09:27:46.546Z,9.04
2019-03-15T09:28:46.646Z,9.01
2019-03-15T09:29:46.735Z,8.87
2019-03-15T09:30:46.826Z,8.90
2019-03-15T09:31:48.365Z,8.93
2019-03-15T09:32:47.002Z,9.09
2019-03-15T09:33:47.124Z,9.04
2019-03-15T09:34:47.191Z,9.04
2019-03-15T09:35:47.286Z,9.09
2019-03-15T09:36:50.493Z,9.27
2019-03-15T09:37:47.957Z,9.31
2019-03-15T09:38:47.562Z,9.42
2019-03-15T09:39:47.658Z,9.40
2019-03-15T09:40:47.748Z,9.39
2019-03-15T09:41:47.843Z,9.38
2019-03-15T09:42:47.936Z,9.38
2019-03-15T09:43:48.032Z,9.39
2019-03-15T09:47:16.142Z,9.48
2019-03-15T09:48:10.221Z,9.53
2019-03-15T09:49:09.197Z,9.35
2019-03-15T09:50:20.990Z,9.50
2019-03-15T09:51:09.394Z,9.49
2019-03-15T09:52:09.484Z,9.46
2019-03-15T09:53:09.565Z,9.56
2019-03-15T09:54:09.659Z,9.46
2019-03-15T09:55:09.749Z,9.45
2019-03-15T09:56:09.841Z,9.39
2019-03-15T09:57:09.927Z,9.38
2019-03-15T09:58:10.024Z,9.45
2019-03-15T09:59:10.111Z,9.53
2019-03-15T10:00:10.202Z,9.46
2019-03-15T10:01:10.538Z,9.45
2019-03-15T10:02:10.378Z,9.52
2019-03-15T10:03:21.575Z,9.56
2019-03-15T10:04:10.561Z,9.63
2019-03-15T10:05:11.751Z,9.66
2019-03-15T10:06:15.804Z,9.60
2019-03-15T10:07:10.915Z,9.50
2019-03-15T10:08:11.098Z,9.46
2019-03-15T10:09:11.073Z,9.57
2019-03-15T10:10:13.884Z,9.49
2019-03-15T10:11:11.238Z,9.48
2019-03-15T10:12:11.328Z,9.68
2019-03-15T10:13:11.423Z,9.63
2019-03-15T10:14:11.510Z,9.70
2019-03-15T10:15:11.597Z,9.82
2019-03-15T10:16:11.686Z,9.71
2019-03-15T10:17:11.776Z,9.85
2019-03-15T10:18:11.869Z,9.73
2019-03-15T10:19:11.968Z,9.71
2019-03-15T10:20:12.655Z,9.71
2019-03-15T10:21:12.156Z,9.88
2019-03-15T10:22:12.245Z,9.79
2019-03-15T10:23:12.336Z,9.91
2019-03-15T10:24:15.495Z,9.91
2019-03-15T10:25:12.518Z,9.91
2019-03-15T10:26:14.980Z,9.85
2019-03-15T10:27:12.748Z,9.91
2019-03-15T10:28:12.804Z,9.83
2019-03-15T10:29:15.642Z,9.76
2019-03-15T10:30:12.976Z,9.86
2019-03-15T10:31:13.055Z,9.83
2019-03-15T10:32:13.146Z,9.85
2019-03-15T10:33:13.257Z,9.97
2019-03-15T10:34:13.351Z,9.83
2019-03-15T10:35:13.405Z,9.79
2019-03-15T10:36:13.496Z,9.64
2019-03-15T10:37:13.587Z,9.75
2019-03-15T10:38:16.557Z,9.75
2019-03-15T10:39:13.773Z,9.75
2019-03-15T10:40:13.855Z,9.66
2019-03-15T10:41:13.954Z,9.76
2019-03-15T10:42:14.049Z,9.86
2019-03-15T10:43:14.126Z,9.93
2019-03-15T10:44:14.236Z,9.97
2019-03-15T10:45:14.347Z,9.91
2019-03-15T10:46:14.427Z,9.99
2019-03-15T10:47:14.610Z,9.83
2019-03-15T10:48:24.529Z,9.75
2019-03-15T10:49:14.759Z,9.68
2019-03-15T10:50:14.806Z,9.73
2019-03-15T10:51:14.902Z,9.75
2019-03-15T10:52:15.117Z,9.79
2019-03-15T10:53:15.144Z,9.93
2019-03-15T10:54:15.232Z,9.83
2019-03-15T10:55:15.339Z,9.67
2019-03-15T10:56:15.422Z,9.70
2019-03-15T10:57:15.514Z,9.48
2019-03-15T10:58:15.607Z,9.48
2019-03-15T10:59:15.701Z,9.48
2019-03-15T11:00:15.788Z,9.60
2019-03-15T11:01:15.880Z,9.43
2019-03-15T11:02:15.969Z,9.56
2019-03-15T11:03:16.061Z,9.64
2019-03-15T11:04:16.154Z,9.73
2019-03-15T11:05:16.340Z,9.75
2019-03-15T11:06:16.337Z,9.81
2019-03-15T11:07:16.429Z,9.85
2019-03-15T11:08:16.521Z,9.78
2019-03-15T11:09:16.611Z,9.68
2019-03-15T11:10:16.704Z,9.75
2019-03-15T11:11:16.824Z,9.85
2019-03-15T11:12:16.982Z,9.89
2019-03-15T11:13:17.013Z,10.00
2019-03-15T11:14:17.103Z,10.07
2019-03-15T11:15:17.287Z,10.18
2019-03-15T11:16:17.283Z,10.21
2019-03-15T11:17:17.391Z,10.24
2019-03-15T11:18:17.463Z,10.30
2019-03-15T11:19:17.554Z,10.37
2019-03-15T11:20:17.645Z,10.39
2019-03-15T11:21:17.732Z,10.30
2019-03-15T11:22:17.820Z,10.26
2019-03-15T11:23:17.911Z,10.26
2019-03-15T11:24:18.008Z,10.28
2019-03-15T11:25:18.107Z,10.22
2019-03-15T11:26:18.195Z,10.32
2019-03-15T11:27:18.282Z,10.39
2019-03-15T11:28:18.377Z,10.39
2019-03-15T11:29:18.469Z,10.37
2019-03-15T11:30:18.570Z,10.42
2019-03-15T11:31:18.686Z,10.56
2019-03-15T11:32:18.856Z,10.47
2019-03-15T11:33:18.882Z,10.52
2019-03-15T11:34:19.053Z,10.65
2019-03-15T11:35:21.285Z,10.66
2019-03-15T11:36:19.151Z,10.74
2019-03-15T11:37:19.241Z,10.76
2019-03-15T11:38:19.334Z,10.91
2019-03-15T11:39:19.425Z,10.95
2019-03-15T11:40:19.719Z,11.01
2019-03-15T11:41:19.609Z,11.01
2019-03-15T11:42:19.704Z,11.06
2019-03-15T11:43:19.798Z,10.98
2019-03-15T11:44:19.891Z,10.77
2019-03-15T11:45:19.974Z,10.71
2019-03-15T11:46:20.092Z,10.83
2019-03-15T11:47:20.176Z,10.73
2019-03-15T11:48:20.237Z,10.80
2019-03-15T11:49:20.333Z,10.81
2019-03-15T11:50:20.420Z,10.83
2019-03-15T11:51:20.511Z,10.77
2019-03-15T11:52:20.616Z,10.94
2019-03-15T11:53:20.704Z,11.01
2019-03-15T11:54:20.986Z,10.99
2019-03-15T11:55:20.904Z,10.84
2019-03-15T11:56:26.852Z,10.73
2019-03-15T11:57:21.073Z,10.70
2019-03-15T11:58:21.167Z,10.83
2019-03-15T11:59:21.258Z,10.88
2019-03-15T12:00:21.356Z,10.84
2019-03-15T12:01:21.449Z,11.01
2019-03-15T12:02:21.542Z,10.91
2019-03-15T12:03:21.637Z,10.88
2019-03-15T12:04:21.725Z,10.77
2019-03-15T12:05:21.818Z,10.94
2019-03-15T12:06:21.907Z,11.02
2019-03-15T12:07:22.004Z,11.09
2019-03-15T12:08:22.098Z,11.21
2019-03-15T12:09:22.191Z,11.34
2019-03-15T12:10:22.289Z,11.36
2019-03-15T12:11:22.380Z,11.39
2019-03-15T12:12:22.471Z,11.36
2019-03-15T12:13:22.563Z,11.32
2019-03-15T12:14:22.658Z,11.35
2019-03-15T12:15:22.777Z,11.36
2019-03-15T12:16:22.887Z,11.41
2019-03-15T12:17:23.040Z,11.50
2019-03-15T12:18:23.020Z,11.44
2019-03-15T12:19:23.130Z,11.46
2019-03-15T12:20:23.202Z,11.53
2019-03-15T12:21:23.293Z,11.57
2019-03-15T12:22:23.381Z,11.65
2019-03-15T12:23:23.476Z,11.68
2019-03-15T12:24:23.565Z,11.68
2019-03-15T12:25:23.658Z,11.64
2019-03-15T12:26:23.752Z,11.59
2019-03-15T12:27:23.842Z,11.43
2019-03-15T12:28:23.932Z,11.50
2019-03-15T12:29:24.033Z,11.35
2019-03-15T12:30:24.132Z,11.39
2019-03-15T12:31:24.218Z,11.49
2019-03-15T12:32:24.311Z,11.47
2019-03-15T12:33:24.406Z,11.68
2019-03-15T12:34:24.495Z,11.65
2019-03-15T12:35:24.589Z,11.59
2019-03-15T12:36:24.673Z,11.65
2019-03-15T12:37:24.767Z,11.67
2019-03-15T12:38:24.854Z,11.61
2019-03-15T12:39:24.995Z,11.71
2019-03-15T12:40:25.082Z,11.85
2019-03-15T12:41:25.176Z,11.86
2019-03-15T12:42:25.264Z,11.87
2019-03-15T12:43:25.364Z,11.96
2019-03-15T12:44:25.456Z,11.96
2019-03-15T12:45:25.547Z,12.05
2019-03-15T12:46:25.640Z,12.11
2019-03-15T12:47:25.734Z,12.09
2019-03-15T12:48:25.836Z,12.23
2019-03-15T12:49:25.967Z,12.21
2019-03-15T12:50:26.024Z,12.34
2019-03-15T12:51:31.967Z,12.33
2019-03-15T12:52:26.216Z,12.37
2019-03-15T12:53:26.304Z,12.37
2019-03-15T12:54:26.396Z,12.45
2019-03-15T12:55:26.508Z,12.69
2019-03-15T12:56:26.659Z,12.67
2019-03-15T12:57:26.688Z,12.77
2019-03-15T12:58:26.793Z,12.84
2019-03-15T12:59:27.025Z,12.93
2019-03-15T13:00:27.012Z,12.97
2019-03-15T13:01:27.092Z,13.00
2019-03-15T13:02:27.210Z,13.04
2019-03-15T13:03:27.293Z,13.00
2019-03-15T13:04:27.390Z,12.97
2019-03-15T13:05:27.479Z,12.69
2019-03-15T13:06:27.571Z,12.79
2019-03-15T13:07:27.699Z,12.79
2019-03-15T13:08:27.741Z,12.79
2019-03-15T13:09:27.835Z,12.97
2019-03-15T13:10:27.994Z,13.00
2019-03-15T13:11:28.021Z,13.17
2019-03-15T13:12:28.111Z,13.11
2019-03-15T13:13:28.202Z,13.37
2019-03-15T13:14:28.321Z,13.38
2019-03-15T13:15:31.795Z,13.21
2019-03-15T13:16:28.548Z,13.24
2019-03-15T13:17:28.652Z,13.27
2019-03-15T13:18:28.684Z,13.46